Time;durP1;ratioP1;P1;durP2;ratioP2;P2;SDS_P1;SDS_P2;PMS_P1;PMS_P2;Temp;Humidity;BMP_temperature;BMP_pressure;BME280_temperature;BME280_humidity;BME280_pressure;Samples;Min_cycle;Max_cycle;Signal;HPM_P1;HPM_P2
2022/08/04 00:01:57;;;;;;;;;;;;;;;20.77;89.59;152875.05;1669140;84;20151;-76
2022/08/04 00:04:33;;;;;;;;;;;;;;;20.75;90.16;152869.83;1686059;84;20261;-77
2022/08/04 00:07:10;;;;;;;;;;;;;;;20.71;90.58;152859.38;1692575;84;21205;-77
2022/08/04 00:09:55;;;;;;;;;;;;;;;20.63;91.21;152839.78;1670549;85;20200;-77
2022/08/04 00:12:23;;;;;;;;;;;;;;;20.57;91.74;152825.39;1701154;84;20208;-77
2022/08/04 00:14:50;;;;;;;;;;;;;;;20.58;92.28;152828.00;1709021;83;20431;-75
2022/08/04 00:17:21;;;;;;;;;;;;;;;20.58;92.52;152828.00;1709893;84;20208;-75
2022/08/04 00:19:48;;;;;;;;;;;;;;;20.57;92.68;152825.39;1691772;84;21257;-77
2022/08/04 00:22:16;;;;;;;;;;;;;;;20.56;92.85;152822.78;1691359;84;20468;-77
2022/08/04 00:24:43;;;;;;;;;;;;;;;20.55;93.12;152820.17;1691167;84;20182;-76
2022/08/04 00:27:10;;;;;;;;;;;;;;;20.54;93.29;152817.56;1690981;84;20194;-76
2022/08/04 00:29:40;;;;;;;;;;;;;;;20.53;93.56;152814.95;1690787;84;20219;-76
2022/08/04 00:32:07;;;;;;;;;;;;;;;20.52;93.85;152812.34;1691007;85;21225;-76
2022/08/04 00:34:34;;;;;;;;;;;;;;;20.50;93.96;152805.80;1690877;84;20201;-75
2022/08/04 00:37:01;;;;;;;;;;;;;;;20.47;94.32;152799.28;1728939;82;20184;-76
2022/08/04 00:39:28;;;;;;;;;;;;;;;20.43;94.77;152788.80;1730315;83;20450;-77
2022/08/04 00:42:02;;;;;;;;;;;;;;;20.39;95.25;152778.36;1710215;82;20236;-77
2022/08/04 00:44:55;;;;;;;;;;;;;;;20.33;95.78;152765.30;1729435;82;22419;-77
2022/08/04 00:47:50;;;;;;;;;;;;;;;20.29;96.31;152753.53;1730188;83;20476;-76
2022/08/04 00:50:36;;;;;;;;;;;;;;;20.25;97.13;152744.42;1730251;83;20301;-77
2022/08/04 00:53:10;;;;;;;;;;;;;;;20.20;97.38;152730.03;1730515;83;20179;-76
2022/08/04 00:55:57;;;;;;;;;;;;;;;20.17;97.84;152724.81;1730543;82;20134;-76
2022/08/04 00:58:30;;;;;;;;;;;;;;;20.15;98.28;152718.28;1730353;83;21184;-76
2022/08/04 01:01:03;;;;;;;;;;;;;;;20.14;98.71;152717.00;1729038;82;20440;-76
2022/08/04 01:03:52;;;;;;;;;;;;;;;20.12;98.82;152710.44;1730637;83;20122;-75
2022/08/04 01:06:31;;;;;;;;;;;;;;;20.10;99.16;152706.50;1712329;82;20222;-77
2022/08/04 01:09:08;;;;;;;;;;;;;;;20.07;99.46;152697.39;1708712;83;20153;-76
2022/08/04 01:11:56;;;;;;;;;;;;;;;20.01;99.85;152684.34;1694226;84;21803;-76
2022/08/04 01:14:35;;;;;;;;;;;;;;;19.98;100.00;152676.47;1658334;85;20204;-76
2022/08/04 01:17:36;;;;;;;;;;;;;;;19.94;100.00;152664.75;1671851;85;20147;-77
2022/08/04 01:20:06;;;;;;;;;;;;;;;19.90;100.00;152655.53;1723784;82;20179;-75
2022/08/04 01:22:37;;;;;;;;;;;;;;;19.88;100.00;152651.59;1726562;82;20127;-75
2022/08/04 01:25:24;;;;;;;;;;;;;;;19.87;100.00;152647.70;1734325;81;21743;-75
2022/08/04 01:28:09;;;;;;;;;;;;;;;19.86;100.00;152645.09;1726338;82;20195;-77
2022/08/04 01:30:36;;;;;;;;;;;;;;;19.84;100.00;152641.16;1728920;82;20285;-75
2022/08/04 01:33:04;;;;;;;;;;;;;;;19.82;100.00;152634.66;1733889;81;20211;-75
2022/08/04 01:35:51;;;;;;;;;;;;;;;19.79;100.00;152628.11;1737407;81;20400;-75
2022/08/04 01:38:25;;;;;;;;;;;;;;;19.80;100.00;152629.44;1723446;83;21091;-74
2022/08/04 01:40:53;;;;;;;;;;;;;;;19.79;100.00;152626.84;1727896;82;20185;-75
2022/08/04 01:43:19;;;;;;;;;;;;;;;19.80;100.00;152630.72;1728516;83;20227;-75
2022/08/04 01:45:50;;;;;;;;;;;;;;;19.81;100.00;152632.06;1727277;83;20882;-76
2022/08/04 01:48:18;;;;;;;;;;;;;;;19.79;100.00;152626.84;1727643;83;20215;-75
2022/08/04 01:50:45;;;;;;;;;;;;;;;19.78;100.00;152624.17;1710022;83;21113;-75
2022/08/04 01:53:12;;;;;;;;;;;;;;;19.80;100.00;152629.44;1728116;83;20175;-75
2022/08/04 01:55:38;;;;;;;;;;;;;;;19.81;100.00;152632.06;1727964;83;20183;-75
2022/08/04 01:58:05;;;;;;;;;;;;;;;19.80;100.00;152629.44;1728143;83;20731;-75
2022/08/04 02:00:32;;;;;;;;;;;;;;;19.79;100.00;152628.11;1727855;82;20179;-75
2022/08/04 02:03:01;;;;;;;;;;;;;;;19.78;100.00;152624.17;1728142;83;21255;-75
2022/08/04 02:05:27;;;;;;;;;;;;;;;19.76;100.00;152621.56;1719503;83;20228;-75
2022/08/04 02:08:13;;;;;;;;;;;;;;;19.73;100.00;152613.73;1708874;84;20419;-75
2022/08/04 02:10:53;;;;;;;;;;;;;;;19.72;100.00;152609.84;1682525;85;20194;-75
2022/08/04 02:13:36;;;;;;;;;;;;;;;19.71;100.00;152608.52;1684580;85;20151;-75
2022/08/04 02:16:21;;;;;;;;;;;;;;;19.69;100.00;152603.30;1684512;84;22108;-74
2022/08/04 02:19:26;;;;;;;;;;;;;;;19.68;100.00;152600.69;1710881;82;20127;-75
2022/08/04 02:21:59;;;;;;;;;;;;;;;19.67;100.00;152598.08;1730944;83;20152;-75
2022/08/04 02:24:26;;;;;;;;;;;;;;;19.67;100.00;152598.08;1734441;82;20571;-75
2022/08/04 02:26:53;;;;;;;;;;;;;;;19.66;100.00;152594.14;1728336;82;20136;-75
2022/08/04 02:29:26;;;;;;;;;;;;;;;19.63;100.00;152587.64;1728273;82;21246;-75
2022/08/04 02:32:09;;;;;;;;;;;;;;;19.63;100.00;152587.64;1728173;83;20076;-75
2022/08/04 02:34:54;;;;;;;;;;;;;;;19.62;100.00;152585.03;1728063;83;20189;-75
2022/08/04 02:37:21;;;;;;;;;;;;;;;19.60;100.00;152581.09;1728324;82;20175;-75
2022/08/04 02:39:47;;;;;;;;;;;;;;;19.59;100.00;152577.20;1728289;82;20199;-75
2022/08/04 02:42:14;;;;;;;;;;;;;;;19.57;100.00;152573.27;1728331;83;21127;-75
2022/08/04 02:44:40;;;;;;;;;;;;;;;19.57;100.00;152573.27;1728250;82;20123;-75
2022/08/04 02:47:07;;;;;;;;;;;;;;;19.54;100.00;152565.44;1728441;83;20185;-75
2022/08/04 02:49:35;;;;;;;;;;;;;;;19.53;100.00;152561.50;1728119;83;20191;-76
2022/08/04 02:52:03;;;;;;;;;;;;;;;19.53;100.00;152561.50;1728941;82;20163;-76
2022/08/04 02:54:32;;;;;;;;;;;;;;;19.52;100.00;152558.91;1728501;83;20880;-75
2022/08/04 02:57:00;;;;;;;;;;;;;;;19.53;100.00;152561.50;1739139;82;20392;-75
2022/08/04 02:59:28;;;;;;;;;;;;;;;19.53;100.00;152562.84;1739317;81;20210;-76
2022/08/04 03:01:55;;;;;;;;;;;;;;;19.54;100.00;152564.13;1739455;82;20178;-75
2022/08/04 03:04:38;;;;;;;;;;;;;;;19.57;100.00;152571.98;1731179;82;20160;-74
2022/08/04 03:07:43;;;;;;;;;;;;;;;19.60;100.00;152581.09;1675706;85;21374;-74
2022/08/04 03:10:40;;;;;;;;;;;;;;;19.65;100.00;152592.86;1709235;83;20177;-74
2022/08/04 03:13:19;;;;;;;;;;;;;;;19.69;100.00;152603.30;1648989;85;20231;-74
2022/08/04 03:16:04;;;;;;;;;;;;;;;19.73;100.00;152612.45;1680411;85;20424;-74
2022/08/04 03:18:53;;;;;;;;;;;;;;;19.75;100.00;152618.95;1702179;82;20187;-75
2022/08/04 03:21:52;;;;;;;;;;;;;;;19.81;100.00;152632.06;1716766;83;21174;-76
2022/08/04 03:24:32;;;;;;;;;;;;;;;19.86;100.00;152645.09;1728378;82;20187;-75
2022/08/04 03:27:16;;;;;;;;;;;;;;;19.91;100.00;152658.19;1728774;83;20152;-75
2022/08/04 03:29:56;;;;;;;;;;;;;;;19.95;100.00;152668.62;1727716;83;20182;-75
2022/08/04 03:32:35;;;;;;;;;;;;;;;19.96;100.00;152671.25;1728217;82;20476;-75
2022/08/04 03:35:22;;;;;;;;;;;;;;;20.00;100.00;152681.69;1728235;82;21965;-74
2022/08/04 03:38:01;;;;;;;;;;;;;;;20.09;100.00;152702.61;1731737;82;20140;-73
2022/08/04 03:40:48;;;;;;;;;;;;;;;20.18;100.00;152726.09;1732541;82;20214;-76
2022/08/04 03:43:34;;;;;;;;;;;;;;;20.26;100.00;152747.03;1733199;82;20147;-75
2022/08/04 03:46:30;;;;;;;;;;;;;;;20.37;100.00;152773.14;1733158;82;20148;-75
2022/08/04 03:49:17;;;;;;;;;;;;;;;20.44;100.00;152791.41;1732971;82;21009;-74
2022/08/04 03:55:11;;;;;;;;;;;;;;;20.73;100.00;152865.89;1732965;82;20167;-75
2022/08/04 03:58:07;;;;;;;;;;;;;;;20.86;100.00;152898.59;1732827;82;20215;-76
2022/08/04 04:00:52;;;;;;;;;;;;;;;21.03;100.00;152940.44;1708543;82;20192;-76
2022/08/04 04:03:38;;;;;;;;;;;;;;;21.23;100.00;152991.42;1732529;82;21187;-76
2022/08/04 04:06:23;;;;;;;;;;;;;;;21.37;99.48;153026.72;1715719;82;20189;-77
2022/08/04 04:09:11;;;;;;;;;;;;;;;21.47;98.40;153051.55;1708028;83;20201;-76
2022/08/04 04:11:42;;;;;;;;;;;;;;;21.58;97.65;153079.00;1621387;87;20215;-75
2022/08/04 04:14:37;;;;;;;;;;;;;;;21.68;96.44;153103.91;1662307;85;20179;-75
2022/08/04 04:17:32;;;;;;;;;;;;;;;21.75;95.94;153122.19;1678935;85;21092;-76
2022/08/04 04:20:18;;;;;;;;;;;;;;;21.83;94.80;153141.81;1663846;85;20161;-76
2022/08/04 04:23:12;;;;;;;;;;;;;;;21.91;94.41;153162.72;1696872;84;20515;-76
2022/08/04 04:26:06;;;;;;;;;;;;;;;22.04;93.91;153195.39;1732971;82;20202;-77
2022/08/04 04:29:12;;;;;;;;;;;;;;;22.20;93.05;153235.92;1733184;82;20175;-76
2022/08/04 04:31:51;;;;;;;;;;;;;;;22.34;92.06;153271.28;1732605;82;21353;-76
2022/08/04 04:34:40;;;;;;;;;;;;;;;22.52;90.99;153317.09;1733428;82;20453;-75
2022/08/04 04:37:17;;;;;;;;;;;;;;;22.55;89.42;153324.94;1733167;82;20196;-75
2022/08/04 04:40:13;;;;;;;;;;;;;;;22.53;89.46;153319.70;1733228;82;20200;-74
2022/08/04 04:43:12;;;;;;;;;;;;;;;22.57;89.21;153328.88;1733129;82;20176;-76
2022/08/04 04:45:42;;;;;;;;;;;;;;;22.63;89.11;153344.56;1733295;82;21257;-77
2022/08/04 04:48:30;;;;;;;;;;;;;;;22.66;88.30;153351.08;1732896;82;20203;-74
2022/08/04 04:51:15;;;;;;;;;;;;;;;22.61;88.60;153340.63;1725172;82;20183;-77
2022/08/04 04:53:48;;;;;;;;;;;;;;;22.67;88.61;153353.73;1733281;82;20197;-59
2022/08/04 04:56:18;;;;;;;;;;;;;;;22.66;88.33;153351.08;1733388;82;20167;-59
2022/08/04 04:58:46;;;;;;;;;;;;;;;22.66;88.60;153351.08;1732773;82;21325;-59
2022/08/04 05:01:29;;;;;;;;;;;;;;;22.70;88.55;153362.86;1733092;82;20297;-59
2022/08/04 05:04:21;;;;;;;;;;;;;;;22.77;88.79;153379.88;1719894;82;20231;-59
2022/08/04 05:07:08;;;;;;;;;;;;;;;22.91;88.42;153413.91;1684705;85;20477;-59
2022/08/04 05:09:54;;;;;;;;;;;;;;;23.03;87.93;153445.28;1646320;86;20485;-58
2022/08/04 05:12:41;;;;;;;;;;;;;;;23.09;87.17;153460.98;1650331;85;21116;-59
2022/08/04 05:15:09;;;;;;;;;;;;;;;23.08;87.06;153458.36;1707316;83;20192;-58
2022/08/04 05:17:37;;;;;;;;;;;;;;;23.06;86.91;153453.13;1713769;82;20207;-58
2022/08/04 05:20:15;;;;;;;;;;;;;;;23.07;87.20;153455.75;1706911;83;20384;-58
2022/08/04 05:23:03;;;;;;;;;;;;;;;23.15;86.49;153476.72;1706882;84;20463;-58
2022/08/04 05:25:36;;;;;;;;;;;;;;;23.15;86.91;153476.72;1712099;83;22157;-76
2022/08/04 05:28:18;;;;;;;;;;;;;;;23.26;86.83;153502.91;1712700;83;20135;-76
2022/08/04 05:30:50;;;;;;;;;;;;;;;23.41;86.14;153542.19;1712836;83;20193;-76
2022/08/04 05:33:25;;;;;;;;;;;;;;;23.46;85.33;153553.98;1713086;83;20210;-76
2022/08/04 05:35:54;;;;;;;;;;;;;;;23.51;85.03;153565.72;1712556;83;20147;-75
2022/08/04 05:38:22;;;;;;;;;;;;;;;23.64;84.76;153599.78;1690746;83;21239;-75
2022/08/04 05:40:49;;;;;;;;;;;;;;;23.68;83.81;153610.25;1713381;83;20130;-76
2022/08/04 05:43:15;;;;;;;;;;;;;;;23.67;83.37;153607.62;1713385;82;20175;-76
2022/08/04 05:45:42;;;;;;;;;;;;;;;23.64;83.63;153598.44;1713400;83;20182;-76
2022/08/04 05:48:09;;;;;;;;;;;;;;;23.70;83.89;153614.19;1713874;83;20135;-76
2022/08/04 05:50:36;;;;;;;;;;;;;;;23.83;83.20;153648.19;1713286;83;21207;-76
2022/08/04 05:53:02;;;;;;;;;;;;;;;23.91;82.88;153667.84;1713448;83;20176;-76
2022/08/04 05:55:29;;;;;;;;;;;;;;;24.00;81.96;153691.44;1713449;83;20203;-75
2022/08/04 05:57:56;;;;;;;;;;;;;;;24.00;81.81;153691.44;1713286;83;20694;-76
2022/08/04 06:00:24;;;;;;;;;;;;;;;23.99;81.91;153688.81;1707370;83;20209;-75
2022/08/04 06:02:50;;;;;;;;;;;;;;;24.11;81.79;153717.64;1704098;83;21268;-76
2022/08/04 06:05:17;;;;;;;;;;;;;;;24.18;81.12;153737.28;1704526;84;20181;-77
2022/08/04 06:07:45;;;;;;;;;;;;;;;24.24;80.94;153751.70;1702111;83;20174;-77
2022/08/04 06:10:11;;;;;;;;;;;;;;;24.32;80.59;153771.36;1683455;82;20444;-75
2022/08/04 06:12:52;;;;;;;;;;;;;;;24.32;79.94;153772.64;1655161;84;20214;-75
2022/08/04 06:15:19;;;;;;;;;;;;;;;24.30;79.92;153767.41;1660333;84;21279;-77
2022/08/04 06:17:58;;;;;;;;;;;;;;;24.36;80.37;153780.50;1701419;83;20486;-76
2022/08/04 06:20:33;;;;;;;;;;;;;;;24.54;79.99;153827.64;1704171;83;20603;-75
2022/08/04 06:23:02;;;;;;;;;;;;;;;24.65;79.00;153853.81;1705320;83;20485;-75
2022/08/04 06:25:33;;;;;;;;;;;;;;;24.65;78.67;153855.14;1704654;83;20180;-75
2022/08/04 06:28:00;;;;;;;;;;;;;;;24.74;77.76;153877.42;1703949;84;22855;-77
2022/08/04 06:30:27;;;;;;;;;;;;;;;24.57;77.75;153835.48;1699220;83;20173;-75
2022/08/04 06:33:00;;;;;;;;;;;;;;;24.46;78.38;153806.70;1704324;83;20172;-75
2022/08/04 06:35:24;;;;;;;;;;;;;;;24.42;78.50;153796.19;1704480;83;20179;-75
2022/08/04 06:37:51;;;;;;;;;;;;;;;24.38;78.72;153787.06;1706107;84;20196;-75
2022/08/04 06:40:19;;;;;;;;;;;;;;;24.37;79.15;153784.44;1700646;83;21257;-75
2022/08/04 06:42:46;;;;;;;;;;;;;;;24.44;79.43;153802.75;1705324;83;20177;-75
2022/08/04 06:45:13;;;;;;;;;;;;;;;24.47;78.77;153809.33;1703604;83;20209;-76
2022/08/04 06:47:40;;;;;;;;;;;;;;;24.45;78.60;153805.38;1701556;83;20467;-75
2022/08/04 06:50:08;;;;;;;;;;;;;;;24.46;78.77;153807.98;1703732;82;20169;-76
2022/08/04 06:52:35;;;;;;;;;;;;;;;24.45;79.04;153805.38;1703456;83;21894;-75
2022/08/04 06:55:02;;;;;;;;;;;;;;;24.62;79.64;153847.30;1701186;83;20209;-75
2022/08/04 06:57:30;;;;;;;;;;;;;;;24.91;78.09;153920.67;1704961;84;20177;-74
2022/08/04 07:00:11;;;;;;;;;;;;;;;25.01;77.18;153945.56;1704902;83;20197;-75
2022/08/04 07:02:47;;;;;;;;;;;;;;;24.98;76.81;153937.72;1701561;82;20179;-76
2022/08/04 07:05:13;;;;;;;;;;;;;;;24.87;76.41;153911.53;1700279;83;20628;-75
2022/08/04 07:07:40;;;;;;;;;;;;;;;24.69;76.75;153864.33;1704265;84;20229;-75
2022/08/04 07:10:07;;;;;;;;;;;;;;;24.56;77.24;153832.87;1704727;84;20438;-76
2022/08/04 07:12:35;;;;;;;;;;;;;;;24.47;77.86;153809.33;1706686;83;20928;-75
2022/08/04 07:15:02;;;;;;;;;;;;;;;24.43;78.00;153798.86;1702285;83;20203;-75
2022/08/04 07:17:29;;;;;;;;;;;;;;;24.40;78.56;153792.28;1700766;83;21133;-75
2022/08/04 07:19:56;;;;;;;;;;;;;;;24.44;78.61;153801.47;1704461;83;20345;-75
2022/08/04 07:22:24;;;;;;;;;;;;;;;24.45;78.82;153804.09;1707591;82;20121;-59
2022/08/04 07:24:55;;;;;;;;;;;;;;;24.45;78.71;153804.09;1705168;84;20182;-75
2022/08/04 07:27:22;;;;;;;;;;;;;;;24.44;78.99;153801.47;1704964;83;20173;-58
2022/08/04 07:29:49;;;;;;;;;;;;;;;24.40;78.95;153790.95;1704295;84;21309;-58
2022/08/04 07:32:16;;;;;;;;;;;;;;;24.34;79.30;153775.25;1704722;83;20222;-59
2022/08/04 07:34:42;;;;;;;;;;;;;;;24.38;79.51;153785.72;1702352;83;20173;-58
2022/08/04 07:37:09;;;;;;;;;;;;;;;24.39;79.39;153788.34;1705907;84;20237;-57
2022/08/04 07:39:36;;;;;;;;;;;;;;;24.41;79.19;153793.56;1704883;84;20177;-59
2022/08/04 07:42:03;;;;;;;;;;;;;;;24.42;78.78;153797.53;1704939;84;21267;-58
2022/08/04 07:44:31;;;;;;;;;;;;;;;24.44;78.33;153801.47;1705181;84;20244;-58
2022/08/04 07:46:58;;;;;;;;;;;;;;;24.43;78.54;153800.14;1700978;82;20216;-60
2022/08/04 07:49:25;;;;;;;;;;;;;;;24.44;78.63;153801.47;1704914;84;20126;-57
2022/08/04 07:51:53;;;;;;;;;;;;;;;24.42;78.63;153796.19;1699804;83;20262;-58
2022/08/04 07:54:20;;;;;;;;;;;;;;;24.31;78.87;153768.69;1699938;83;21287;-58
2022/08/04 07:56:50;;;;;;;;;;;;;;;24.17;79.73;153733.34;1703627;84;20173;-58
2022/08/04 07:59:18;;;;;;;;;;;;;;;24.12;79.91;153721.59;1703957;83;20215;-59
2022/08/04 08:01:45;;;;;;;;;;;;;;;23.98;80.20;153686.16;1702857;84;20197;-59
2022/08/04 08:04:12;;;;;;;;;;;;;;;23.85;80.99;153653.42;1703832;84;20169;-59
2022/08/04 08:06:43;;;;;;;;;;;;;;;23.78;81.49;153633.83;1701284;83;21222;-59
2022/08/04 08:09:12;;;;;;;;;;;;;;;23.67;82.05;153607.62;1704247;83;20326;-58
2022/08/04 08:11:42;;;;;;;;;;;;;;;23.67;82.53;153607.62;1703672;82;32592;-59
2022/08/04 08:14:08;;;;;;;;;;;;;;;23.74;82.55;153624.66;1702895;83;20154;-59
2022/08/04 08:16:35;;;;;;;;;;;;;;;23.79;82.43;153637.73;1699609;83;20209;-59
2022/08/04 08:19:02;;;;;;;;;;;;;;;23.82;82.55;153644.30;1698703;83;21246;-58
2022/08/04 08:21:29;;;;;;;;;;;;;;;23.88;82.43;153659.98;1703557;83;20426;-59
2022/08/04 08:23:56;;;;;;;;;;;;;;;23.89;82.45;153662.61;1703745;84;20237;-59
2022/08/04 08:26:22;;;;;;;;;;;;;;;23.87;82.34;153657.38;1704682;83;21340;-59
2022/08/04 08:28:49;;;;;;;;;;;;;;;23.88;82.50;153659.98;1703397;83;20177;-58
2022/08/04 08:31:15;;;;;;;;;;;;;;;24.03;82.65;153699.33;1696241;83;21123;-58
2022/08/04 08:33:42;;;;;;;;;;;;;;;24.18;81.44;153737.28;1697953;83;20197;-58
2022/08/04 08:36:12;;;;;;;;;;;;;;;24.20;80.88;153741.19;1700744;83;20194;-59
2022/08/04 08:38:59;;;;;;;;;;;;;;;24.30;80.98;153767.41;1697529;83;20228;-58
2022/08/04 08:41:56;;;;;;;;;;;;;;;24.49;80.10;153814.56;1705853;83;20181;-59
2022/08/04 08:44:35;;;;;;;;;;;;;;;24.45;79.22;153804.09;1640578;86;21170;-58
2022/08/04 08:47:40;;;;;;;;;;;;;;;24.41;79.67;153793.56;1642496;86;20202;-58
2022/08/04 08:50:31;;;;;;;;;;;;;;;24.50;79.43;153817.17;1685856;83;20174;-59
2022/08/04 08:53:07;;;;;;;;;;;;;;;24.54;79.00;153826.36;1669243;83;20181;-58
2022/08/04 08:56:00;;;;;;;;;;;;;;;24.52;78.64;153822.41;1701371;84;20193;-58
2022/08/04 08:58:43;;;;;;;;;;;;;;;24.58;78.42;153838.11;1693837;83;21341;-58
2022/08/04 09:01:32;;;;;;;;;;;;;;;24.59;77.76;153840.72;1700417;83;20499;-59
2022/08/04 09:04:02;;;;;;;;;;;;;;;24.57;78.35;153835.48;1700343;83;20180;-58
2022/08/04 09:06:57;;;;;;;;;;;;;;;24.64;78.03;153851.19;1702093;83;20181;-75
2022/08/04 09:09:48;;;;;;;;;;;;;;;24.65;77.67;153853.81;1687145;84;20208;-74
2022/08/04 09:12:18;;;;;;;;;;;;;;;24.60;77.89;153843.34;1660957;84;21236;-75
2022/08/04 09:15:03;;;;;;;;;;;;;;;24.70;77.91;153868.23;1697341;83;21128;-59
2022/08/04 09:17:36;;;;;;;;;;;;;;;24.89;77.26;153916.78;1672874;82;20194;-59
2022/08/04 09:20:05;;;;;;;;;;;;;;;25.14;76.07;153978.31;1652358;83;20547;-58
2022/08/04 09:22:43;;;;;;;;;;;;;;;25.32;74.82;154024.20;1704836;83;20181;-58
2022/08/04 09:25:25;;;;;;;;;;;;;;;25.52;74.05;154075.33;1699048;83;22262;-59
2022/08/04 09:27:57;;;;;;;;;;;;;;;25.72;73.10;154125.14;1693980;83;20163;-58
2022/08/04 09:30:38;;;;;;;;;;;;;;;25.95;71.95;154184.09;1697553;83;20167;-58
2022/08/04 09:33:17;;;;;;;;;;;;;;;26.08;70.97;154216.84;1701324;83;20177;-59
2022/08/04 09:35:52;;;;;;;;;;;;;;;26.07;69.95;154214.23;1698885;83;20222;-58
2022/08/04 09:38:37;;;;;;;;;;;;;;;25.99;70.53;154194.61;1721407;81;21094;-59
2022/08/04 09:41:29;;;;;;;;;;;;;;;26.07;69.79;154214.23;1714689;81;20240;-59
2022/08/04 09:44:15;;;;;;;;;;;;;;;26.23;69.61;154254.95;1728094;81;20518;-59
2022/08/04 09:46:45;;;;;;;;;;;;;;;26.44;67.95;154307.41;1732398;80;20465;-58
2022/08/04 09:49:31;;;;;;;;;;;;;;;26.59;67.04;154345.41;1705595;83;20208;-58
2022/08/04 09:52:04;;;;;;;;;;;;;;;26.60;66.42;154349.31;1655016;83;21284;-58
2022/08/04 09:54:40;;;;;;;;;;;;;;;26.71;66.72;154375.56;1699101;83;20170;-57
2022/08/04 09:57:30;;;;;;;;;;;;;;;26.82;65.87;154404.39;1702258;83;20149;-58
2022/08/04 10:00:02;;;;;;;;;;;;;;;26.87;64.70;154416.27;1702845;83;20257;-58
2022/08/04 10:02:33;;;;;;;;;;;;;;;26.93;64.59;154430.70;1700344;83;20201;-59
2022/08/04 10:05:01;;;;;;;;;;;;;;;26.99;63.92;154446.42;1703378;83;21248;-59
2022/08/04 10:07:46;;;;;;;;;;;;;;;27.04;63.36;154459.52;1700014;83;20165;-58
2022/08/04 10:10:35;;;;;;;;;;;;;;;27.07;63.39;154467.39;1703609;83;20506;-58
2022/08/04 10:13:08;;;;;;;;;;;;;;;27.08;61.55;154470.06;1699239;83;20640;-59
2022/08/04 10:15:41;;;;;;;;;;;;;;;27.07;61.87;154467.39;1687807;83;20221;-59
2022/08/04 10:18:17;;;;;;;;;;;;;;;27.10;62.17;154475.30;1704158;83;21142;-59
2022/08/04 10:21:06;;;;;;;;;;;;;;;27.22;62.00;154505.47;1702490;83;20447;-59
2022/08/04 10:23:43;;;;;;;;;;;;;;;27.35;61.57;154538.25;1701438;83;20226;-58
2022/08/04 10:26:31;;;;;;;;;;;;;;;27.37;61.31;154543.50;1704544;83;20198;-59
2022/08/04 10:29:21;;;;;;;;;;;;;;;27.42;61.45;154556.59;1702261;83;20193;-60
2022/08/04 10:32:08;;;;;;;;;;;;;;;27.54;60.59;154586.81;1705217;83;21143;-59
2022/08/04 10:34:44;;;;;;;;;;;;;;;27.65;59.58;154614.38;1714455;82;20818;-59
2022/08/04 10:37:28;;;;;;;;;;;;;;;27.82;59.34;154656.36;1708935;83;20137;-60
2022/08/04 10:43:01;;;;;;;;;;;;;;;28.07;57.29;154719.34;1716136;83;20196;-58
2022/08/04 10:45:49;;;;;;;;;;;;;;;28.06;57.55;154716.72;1717543;83;21132;-58
2022/08/04 10:48:42;;;;;;;;;;;;;;;28.10;57.37;154727.20;1718679;83;20185;-59
2022/08/04 10:51:16;;;;;;;;;;;;;;;28.22;56.70;154757.44;1717089;83;20462;-59
2022/08/04 10:53:43;;;;;;;;;;;;;;;28.43;56.03;154811.28;1720380;83;20181;-59
2022/08/04 10:56:16;;;;;;;;;;;;;;;28.47;55.48;154820.44;1717761;83;20190;-59
2022/08/04 10:58:52;;;;;;;;;;;;;;;28.47;55.59;154821.77;1690086;84;21787;-59
2022/08/04 11:01:25;;;;;;;;;;;;;;;28.49;55.86;154827.00;1692040;83;20135;-60
2022/08/04 11:03:58;;;;;;;;;;;;;;;28.57;57.77;154847.98;1698105;83;20249;-59
2022/08/04 11:06:25;;;;;;;;;;;;;;;28.69;58.62;154876.89;1667835;84;20864;-60
2022/08/04 11:08:53;;;;;;;;;;;;;;;28.74;57.35;154890.00;1684250;84;20226;-77
2022/08/04 11:11:43;;;;;;;;;;;;;;;28.70;58.01;154879.52;1706367;82;21213;-77
2022/08/04 11:14:11;;;;;;;;;;;;;;;28.64;56.23;154863.78;1716335;83;20221;-76
2022/08/04 11:16:45;;;;;;;;;;;;;;;28.64;56.26;154863.78;1738276;82;20517;-77
2022/08/04 11:19:50;;;;;;;;;;;;;;;28.68;56.81;154875.56;1698177;83;20174;-78
2022/08/04 11:22:23;;;;;;;;;;;;;;;28.75;58.21;154892.62;1683974;85;20187;-77
2022/08/04 11:24:53;;;;;;;;;;;;;;;28.79;59.43;154903.17;1691275;84;21190;-77
2022/08/04 11:27:27;;;;;;;;;;;;;;;28.80;59.94;154905.80;1684970;85;20230;-78
2022/08/04 11:29:57;;;;;;;;;;;;;;;28.82;60.04;154911.05;1668295;83;20223;-79
2022/08/04 11:32:27;;;;;;;;;;;;;;;28.83;60.68;154913.66;1672398;85;20272;-78
2022/08/04 11:34:56;;;;;;;;;;;;;;;28.84;61.08;154916.28;1683327;85;20512;-77
2022/08/04 11:37:26;;;;;;;;;;;;;;;28.84;61.59;154916.28;1683555;85;21195;-79
2022/08/04 11:40:05;;;;;;;;;;;;;;;28.79;61.98;154903.17;1684414;85;20175;-78
2022/08/04 11:42:36;;;;;;;;;;;;;;;28.72;61.44;154884.77;1684796;85;20179;-77
2022/08/04 11:45:07;;;;;;;;;;;;;;;28.72;61.16;154884.77;1684129;85;20195;-77
2022/08/04 11:47:41;;;;;;;;;;;;;;;28.78;60.09;154900.50;1685625;83;20163;-76
2022/08/04 11:50:24;;;;;;;;;;;;;;;28.85;58.84;154918.97;1697476;83;21126;-77
2022/08/04 11:52:53;;;;;;;;;;;;;;;28.91;58.82;154932.08;1700461;83;20223;-78
2022/08/04 11:55:21;;;;;;;;;;;;;;;28.89;59.92;154928.13;1703118;83;20180;-77
2022/08/04 11:57:48;;;;;;;;;;;;;;;28.82;60.63;154911.05;1702461;83;20208;-77
2022/08/04 12:00:16;;;;;;;;;;;;;;;28.73;60.93;154887.39;1701562;82;20146;-77
2022/08/04 12:03:16;;;;;;;;;;;;;;;28.60;61.43;154854.58;1699669;83;21244;-78
2022/08/04 12:05:52;;;;;;;;;;;;;;;28.56;61.79;154844.08;1700477;83;20483;-77
2022/08/04 12:08:23;;;;;;;;;;;;;;;28.52;61.14;154834.88;1699084;83;20187;-77
2022/08/04 12:10:56;;;;;;;;;;;;;;;28.41;61.00;154807.31;1700644;83;20213;-76
2022/08/04 12:13:32;;;;;;;;;;;;;;;28.38;60.96;154798.11;1682758;83;20278;-78
2022/08/04 12:16:37;;;;;;;;;;;;;;;28.30;61.12;154779.75;1669400;83;21107;-77
2022/08/04 12:19:14;;;;;;;;;;;;;;;28.25;61.54;154766.64;1701963;83;20481;-78
2022/08/04 12:21:42;;;;;;;;;;;;;;;28.23;61.75;154761.39;1702054;84;20439;-79
2022/08/04 12:24:34;;;;;;;;;;;;;;;28.23;61.79;154761.39;1704423;83;20500;-79
2022/08/04 12:27:13;;;;;;;;;;;;;;;28.24;61.91;154762.69;1701438;83;20206;-79
2022/08/04 12:29:40;;;;;;;;;;;;;;;28.22;61.84;154758.78;1688853;83;21225;-79
2022/08/04 12:32:13;;;;;;;;;;;;;;;28.14;61.74;154739.03;1706537;83;20427;-78
2022/08/04 12:34:42;;;;;;;;;;;;;;;28.08;61.97;154721.97;1707922;83;20201;-60
2022/08/04 12:37:15;;;;;;;;;;;;;;;28.05;61.48;154714.09;1703923;83;20382;-59
2022/08/04 12:39:42;;;;;;;;;;;;;;;28.00;61.21;154703.61;1704737;83;20198;-59
2022/08/04 12:42:17;;;;;;;;;;;;;;;27.94;62.11;154687.83;1699332;83;21244;-59
2022/08/04 12:44:43;;;;;;;;;;;;;;;27.86;63.23;154668.19;1701287;83;20196;-59
2022/08/04 12:47:11;;;;;;;;;;;;;;;27.82;63.14;154657.66;1701725;83;20146;-60
2022/08/04 12:49:38;;;;;;;;;;;;;;;27.79;63.26;154648.50;1702762;83;20181;-60
2022/08/04 12:52:05;;;;;;;;;;;;;;;27.74;63.68;154636.67;1701290;83;20178;-60
2022/08/04 12:54:35;;;;;;;;;;;;;;;27.69;63.67;154624.86;1703425;83;21206;-59
2022/08/04 12:57:05;;;;;;;;;;;;;;;27.63;63.56;154609.13;1703804;83;20248;-58
2022/08/04 12:59:37;;;;;;;;;;;;;;;27.58;63.57;154597.30;1704752;83;20604;-59
2022/08/04 13:02:04;;;;;;;;;;;;;;;27.53;64.25;154584.19;1716905;82;20970;-79
2022/08/04 13:04:31;;;;;;;;;;;;;;;27.50;64.71;154576.28;1704554;82;20160;-79
2022/08/04 13:07:04;;;;;;;;;;;;;;;27.46;64.97;154567.08;1705433;82;21270;-60
2022/08/04 13:09:32;;;;;;;;;;;;;;;27.44;65.23;154560.55;1698705;82;20181;-78
2022/08/04 13:12:02;;;;;;;;;;;;;;;27.41;65.49;154553.97;1708615;81;20483;-79
2022/08/04 13:14:32;;;;;;;;;;;;;;;27.40;65.72;154551.34;1700151;82;20161;-78
2022/08/04 13:16:59;;;;;;;;;;;;;;;27.39;65.83;154547.39;1706056;82;20207;-78
2022/08/04 13:19:30;;;;;;;;;;;;;;;27.36;66.09;154539.53;1703194;82;21249;-78
2022/08/04 13:21:56;;;;;;;;;;;;;;;27.35;66.15;154538.25;1708092;82;20225;-78
2022/08/04 13:24:23;;;;;;;;;;;;;;;27.37;66.11;154542.16;1703423;81;20568;-78